KCOM

Coleman Municipal Airport

Coleman, Texas, USA
METAR KCOM 201735Z AUTO 02009KT 10SM SCT020 20/14 A3028 RMK AO2 T02000135
Observed Flight Rules
Oct-20 @ 17:35 UTC (24 minutes ago) Visual Flight Rules
Wind Visibility Clouds
20° at 9 knots 10 miles
  • Scattered at 2,000' AGL
Temperatures Readings
Current 20°C / 68°F
Dewpoint 14°C / 57°F
Humidity 69%
Altimeter 30.28" Hg
Pressure 1025 hPa
Elevation 517
METAR KCOM 201735Z AUTO 02009KT 10SM SCT020 20/14 A3028 RMK AO2 T02000135
Observed Flight Rules
Oct-20 @ 17:35 UTC
(24 minutes ago)
VFR
Wind Visibility
20° at 9 knots 10 miles
Clouds
  • Scattered at 2,000' AGL
Temperature Dewpoint
20°C / 68°F 14°C / 57°F
Humidity Altimeter Pressure
69% 30.28" Hg 1025 hPa